createdAt,value
2024-03-10T00:02:01.254Z,5.4
2024-03-10T00:05:01.008Z,5.4
2024-03-10T00:07:01.076Z,5.2
2024-03-10T00:09:01.274Z,5.2
2024-03-10T00:13:01.040Z,5.3
2024-03-10T00:17:01.154Z,5.3
2024-03-10T00:19:01.007Z,5.2
2024-03-10T00:20:01.045Z,5.3
2024-03-10T00:21:01.136Z,5.2
2024-03-10T00:23:01.052Z,5.3
2024-03-10T00:24:01.244Z,5.2
2024-03-10T00:26:01.154Z,5.3
2024-03-10T00:29:01.050Z,5.1
2024-03-10T00:31:01.021Z,5.2
2024-03-10T00:33:01.036Z,5.2
2024-03-10T00:34:01.016Z,5.1
2024-03-10T00:36:01.032Z,5.3
2024-03-10T00:38:01.027Z,5.2
2024-03-10T00:39:01.091Z,5.1
2024-03-10T00:42:01.034Z,5.3
2024-03-10T00:43:01.045Z,5.2
2024-03-10T00:47:01.086Z,5.3
2024-03-10T00:49:01.027Z,5.2
2024-03-10T00:50:01.157Z,5.1
2024-03-10T00:51:01.011Z,5
2024-03-10T00:53:01.067Z,5.1
2024-03-10T00:55:01.084Z,4.9
2024-03-10T00:57:01.255Z,4.9
2024-03-10T00:59:01.019Z,4.9
2024-03-10T01:01:01.029Z,4.8
2024-03-10T01:02:01.094Z,4.9
2024-03-10T01:04:01.053Z,5
2024-03-10T01:05:01.062Z,4.9
2024-03-10T01:07:00.984Z,5
2024-03-10T01:09:01.031Z,5
2024-03-10T01:11:01.019Z,5.1
2024-03-10T01:13:01.015Z,4.9
2024-03-10T01:17:00.993Z,5.1
2024-03-10T01:19:00.996Z,5
2024-03-10T01:21:01.023Z,5.1
2024-03-10T01:24:02.051Z,5.1
2024-03-10T01:28:00.999Z,5.3
2024-03-10T01:29:01.104Z,5.2
2024-03-10T01:30:01.053Z,5.3
2024-03-10T01:33:01.049Z,5.3
2024-03-10T01:34:01.009Z,5.1
2024-03-10T01:35:01.024Z,5.2
2024-03-10T01:37:01.067Z,5.1
2024-03-10T01:39:01.047Z,5.2
2024-03-10T01:43:00.993Z,5
2024-03-10T01:45:01.036Z,5.2
2024-03-10T01:47:01.056Z,5.2
2024-03-10T01:48:01.071Z,5.1
2024-03-10T01:49:01.119Z,4.9
2024-03-10T01:51:01.054Z,5
2024-03-10T01:53:01.048Z,5
2024-03-10T01:55:01.028Z,5
2024-03-10T01:56:01.088Z,4.9
2024-03-10T01:57:01.062Z,5
2024-03-10T02:00:01.132Z,5
2024-03-10T02:02:01.037Z,4.9
2024-03-10T02:09:01.211Z,4.8
2024-03-10T02:11:01.074Z,5.1
2024-03-10T02:14:00.978Z,5.1
2024-03-10T02:16:01.065Z,5
2024-03-10T02:18:01.060Z,5.1
2024-03-10T02:20:01.032Z,5.1
2024-03-10T02:25:01.055Z,4.9
2024-03-10T02:27:01.115Z,5.2
2024-03-10T02:29:01.004Z,5.2
2024-03-10T02:31:00.976Z,5.1
2024-03-10T02:32:01.093Z,5.2
2024-03-10T02:34:00.955Z,5.2
2024-03-10T02:35:01.075Z,5.1
2024-03-10T02:36:01.133Z,5.2
2024-03-10T02:38:01.023Z,5.2
2024-03-10T02:40:00.979Z,5.1
2024-03-10T02:41:01.093Z,5.2
2024-03-10T02:44:00.975Z,5.1
2024-03-10T02:45:01.028Z,5.2
2024-03-10T02:47:01.018Z,5.4
2024-03-10T02:49:01.014Z,5.2
2024-03-10T02:51:00.982Z,5.3
2024-03-10T02:52:01.016Z,5
2024-03-10T02:54:01.024Z,5.2
2024-03-10T02:56:01.091Z,5.2
2024-03-10T02:58:00.955Z,5.2
2024-03-10T03:01:01.008Z,5.3
2024-03-10T03:05:01.061Z,5.1
2024-03-10T03:06:01.280Z,5.2
2024-03-10T03:09:00.993Z,5.3
2024-03-10T03:10:01.113Z,5.1
2024-03-10T03:12:01.070Z,5.4
2024-03-10T03:13:01.008Z,5.3
2024-03-10T03:14:01.040Z,5.1
2024-03-10T03:15:01.123Z,5.2
2024-03-10T03:17:01.103Z,5.2
2024-03-10T03:18:01.060Z,5.1
2024-03-10T03:21:01.062Z,5.3
2024-03-10T03:23:01.053Z,5.2
2024-03-10T03:25:01.066Z,5.3
2024-03-10T03:27:01.058Z,5.2
2024-03-10T03:29:01.054Z,5.1
2024-03-10T03:30:01.092Z,5.2
2024-03-10T03:32:01.103Z,5.3
2024-03-10T03:34:00.983Z,5.1
2024-03-10T03:35:01.051Z,5.2
2024-03-10T03:37:01.073Z,5
2024-03-10T03:40:00.988Z,5.2
2024-03-10T03:42:01.034Z,5.1
2024-03-10T03:44:01.131Z,5.3
2024-03-10T03:46:01.061Z,5.2
2024-03-10T03:48:01.079Z,5
2024-03-10T03:50:01.200Z,5.1
2024-03-10T03:55:01.028Z,5
2024-03-10T03:57:01.043Z,5.1
2024-03-10T03:59:01.005Z,5.2
2024-03-10T04:03:01.410Z,5
2024-03-10T04:05:01.028Z,4.9
2024-03-10T04:06:01.047Z,5.1
2024-03-10T04:09:01.083Z,5.2
2024-03-10T04:11:01.056Z,5
2024-03-10T04:12:01.140Z,5.2
2024-03-10T04:14:00.990Z,5.3
2024-03-10T04:15:01.148Z,5
2024-03-10T04:17:01.048Z,5.2
2024-03-10T04:18:01.035Z,5.1
2024-03-10T04:20:01.049Z,5.2
2024-03-10T04:23:01.031Z,5.1
2024-03-10T04:24:01.001Z,5.2
2024-03-10T04:25:01.002Z,5.1
2024-03-10T04:27:01.132Z,5.2
2024-03-10T04:29:01.025Z,5.1
2024-03-10T04:31:00.995Z,5
2024-03-10T04:33:01.035Z,5.1
2024-03-10T04:34:00.996Z,5.2
2024-03-10T04:35:01.086Z,5.1
2024-03-10T04:38:01.000Z,5.2
2024-03-10T04:40:01.006Z,5.1
2024-03-10T04:41:01.074Z,5.2
2024-03-10T04:44:01.087Z,5.1
2024-03-10T04:47:01.102Z,5.1
2024-03-10T04:49:01.016Z,5.2
2024-03-10T04:52:01.054Z,5.1
2024-03-10T04:53:01.183Z,5.2
2024-03-10T04:57:01.048Z,5.4
2024-03-10T04:58:01.037Z,5.2
2024-03-10T04:59:01.061Z,5.3
2024-03-10T05:03:01.049Z,5.2
2024-03-10T05:05:01.116Z,5.3
2024-03-10T05:09:00.999Z,5.3
2024-03-10T05:16:00.987Z,5.1
2024-03-10T05:18:01.304Z,5.2
2024-03-10T05:20:01.032Z,5.2
2024-03-10T05:21:01.035Z,5.3
2024-03-10T05:22:00.999Z,5.1
2024-03-10T05:24:01.002Z,5.1
2024-03-10T05:25:01.010Z,5.2
2024-03-10T05:26:01.122Z,5.3
2024-03-10T05:28:01.054Z,5.2
2024-03-10T05:29:01.042Z,5.4
2024-03-10T05:31:01.241Z,5.2
2024-03-10T05:36:01.120Z,5.2
2024-03-10T05:38:01.008Z,5.5
2024-03-10T05:39:01.256Z,5.3
2024-03-10T05:42:01.037Z,5.4
2024-03-10T05:44:01.085Z,5.4
2024-03-10T05:45:01.063Z,5.5
2024-03-10T05:47:02.875Z,5.4
2024-03-10T05:50:01.047Z,5.5
2024-03-10T05:52:01.016Z,5.4
2024-03-10T05:53:01.048Z,5.5
2024-03-10T05:54:01.042Z,5.4
2024-03-10T05:57:01.017Z,5.4
2024-03-10T05:58:01.000Z,5.6
2024-03-10T06:02:01.167Z,5.6
2024-03-10T06:04:01.011Z,5.4
2024-03-10T06:05:01.063Z,5.5
2024-03-10T06:07:01.161Z,5.7
2024-03-10T06:09:01.163Z,5.8
2024-03-10T06:14:01.132Z,5.8
2024-03-10T06:16:01.023Z,5.7
2024-03-10T06:17:01.130Z,5.8
2024-03-10T06:26:01.095Z,5.9
2024-03-10T06:27:01.057Z,5.8
2024-03-10T06:29:01.328Z,6
2024-03-10T06:33:01.356Z,5.9
2024-03-10T06:36:01.002Z,6
2024-03-10T06:39:01.044Z,6.1
2024-03-10T06:42:01.185Z,6.2
2024-03-10T06:44:01.066Z,6
2024-03-10T06:45:01.046Z,6.2
2024-03-10T06:48:01.058Z,6.3
2024-03-10T06:51:01.150Z,6.2
2024-03-10T06:54:00.995Z,6.4
2024-03-10T06:55:01.043Z,6.3
2024-03-10T06:58:01.044Z,6.4
2024-03-10T06:59:01.156Z,6.5
2024-03-10T07:01:01.104Z,6.4
2024-03-10T07:04:01.008Z,6.5
2024-03-10T07:08:01.043Z,6.4
2024-03-10T07:09:01.056Z,6.6
2024-03-10T07:11:01.111Z,6.6
2024-03-10T07:15:01.144Z,6.7
2024-03-10T07:18:00.993Z,6.7
2024-03-10T07:19:01.060Z,6.6
2024-03-10T07:20:01.323Z,6.8
2024-03-10T07:22:01.021Z,6.9
2024-03-10T07:23:01.066Z,6.7
2024-03-10T07:26:01.050Z,6.9
2024-03-10T07:27:01.137Z,6.8
2024-03-10T07:31:01.136Z,7
2024-03-10T07:34:01.129Z,7.1
2024-03-10T07:37:01.211Z,7
2024-03-10T07:39:01.055Z,7.2
2024-03-10T07:41:01.107Z,7.1
2024-03-10T07:49:01.069Z,7.1
2024-03-10T07:53:01.221Z,7.3
2024-03-10T07:55:01.086Z,7.3
2024-03-10T07:57:01.122Z,7.3
2024-03-10T08:03:01.086Z,7.5
2024-03-10T08:06:01.040Z,7.5
2024-03-10T08:13:03.402Z,7.6
2024-03-10T08:17:01.055Z,7.6
2024-03-10T08:20:01.129Z,7.7
2024-03-10T08:21:01.083Z,7.6
2024-03-10T08:26:01.031Z,7.9
2024-03-10T08:33:01.105Z,8
2024-03-10T08:35:01.057Z,8.1
2024-03-10T08:36:01.050Z,8
2024-03-10T08:37:01.087Z,8.2
2024-03-10T08:38:01.206Z,8.1
2024-03-10T08:40:01.027Z,8.2
2024-03-10T08:41:01.178Z,8.3
2024-03-10T08:43:01.143Z,8.3
2024-03-10T08:45:01.110Z,8.4
2024-03-10T08:47:01.141Z,8.4
2024-03-10T08:49:01.280Z,8.6
2024-03-10T08:51:01.496Z,8.7
2024-03-10T08:56:01.154Z,8.9
2024-03-10T08:57:01.203Z,8.7
2024-03-10T08:59:01.130Z,8.8
2024-03-10T09:03:01.092Z,8.9
2024-03-10T09:05:01.234Z,9.1
2024-03-10T09:07:01.025Z,9.1
2024-03-10T09:09:01.103Z,9.2
2024-03-10T09:12:01.318Z,9.4
2024-03-10T09:15:01.060Z,9.5
2024-03-10T09:17:01.139Z,9.4
2024-03-10T09:20:01.191Z,9.4
2024-03-10T09:24:01.166Z,9.7
2024-03-10T09:25:01.162Z,9.5
2024-03-10T09:28:01.013Z,9.7
2024-03-10T09:29:01.034Z,9.5
2024-03-10T09:30:01.214Z,9.6
2024-03-10T09:33:01.204Z,9.8
2024-03-10T09:36:01.113Z,9.7
2024-03-10T09:37:01.113Z,9.8
2024-03-10T09:39:01.035Z,9.8
2024-03-10T09:41:01.578Z,9.9
2024-03-10T09:43:01.176Z,9.9
2024-03-10T09:46:00.978Z,10.2
2024-03-10T09:48:01.214Z,10.3
2024-03-10T09:50:01.083Z,10.7
2024-03-10T09:51:01.098Z,10.6
2024-03-10T09:55:01.220Z,10.7
2024-03-10T09:57:01.111Z,10.8
2024-03-10T09:59:01.159Z,10.7
2024-03-10T10:01:01.104Z,10.7
2024-03-10T10:04:00.986Z,10.6
2024-03-10T10:05:01.091Z,10.7
2024-03-10T10:08:01.162Z,10.8
2024-03-10T10:09:01.095Z,10.9
2024-03-10T10:11:01.084Z,11
2024-03-10T10:12:01.084Z,11.3
2024-03-10T10:14:01.028Z,11.4
2024-03-10T10:16:01.023Z,11.5
2024-03-10T10:17:01.146Z,11.6
2024-03-10T10:20:01.058Z,11.8
2024-03-10T10:22:01.020Z,11.9
2024-03-10T10:23:01.168Z,11.8
2024-03-10T10:26:01.184Z,11.7
2024-03-10T10:28:01.026Z,11.5
2024-03-10T10:30:01.322Z,11.3
2024-03-10T10:32:01.341Z,11.5
2024-03-10T10:34:01.089Z,11.3
2024-03-10T10:36:00.988Z,11.3
2024-03-10T10:38:01.098Z,11.5
2024-03-10T10:39:01.099Z,11.4
2024-03-10T10:41:01.106Z,11.3
2024-03-10T10:43:05.241Z,11.4
2024-03-10T10:45:01.059Z,11.3
2024-03-10T10:47:01.158Z,11.4
2024-03-10T10:48:01.096Z,11.3
2024-03-10T10:50:01.111Z,11.3
2024-03-10T10:53:01.200Z,11.4
2024-03-10T10:57:01.175Z,11.5
2024-03-10T11:01:01.123Z,11.3
2024-03-10T11:03:01.090Z,11.2
2024-03-10T11:04:01.151Z,11.3
2024-03-10T11:07:01.083Z,11.2
2024-03-10T11:09:01.046Z,11.3
2024-03-10T11:11:01.320Z,11.2
2024-03-10T11:13:01.048Z,11.1
2024-03-10T11:16:01.235Z,11.2
2024-03-10T11:19:01.072Z,11.3
2024-03-10T11:21:01.125Z,11.3
2024-03-10T11:23:01.125Z,11.4
2024-03-10T11:25:01.287Z,11.5
2024-03-10T11:29:01.232Z,11.6
2024-03-10T11:31:01.108Z,11.7
2024-03-10T11:35:01.261Z,11.8
2024-03-10T11:38:01.209Z,12
2024-03-10T11:40:01.059Z,12.2
2024-03-10T11:43:01.263Z,12.4
2024-03-10T11:44:01.227Z,12.3
2024-03-10T11:47:01.057Z,12.3
2024-03-10T11:48:01.281Z,12.5
2024-03-10T11:50:01.237Z,12.6
2024-03-10T11:55:01.277Z,12.7
2024-03-10T12:01:01.137Z,12.8
2024-03-10T12:03:01.336Z,12.8
2024-03-10T12:05:01.109Z,12.8
2024-03-10T12:09:01.134Z,12.8
2024-03-10T12:12:01.151Z,12.7
2024-03-10T12:15:01.138Z,12.8
2024-03-10T12:17:01.265Z,12.9
2024-03-10T12:19:01.085Z,12.9
2024-03-10T12:21:01.110Z,12.7
2024-03-10T12:23:01.094Z,12.5
2024-03-10T12:25:01.176Z,12.4
2024-03-10T12:27:01.373Z,12.5
2024-03-10T12:29:01.086Z,12.3
2024-03-10T12:34:01.047Z,12.2
2024-03-10T12:35:01.151Z,12.1
2024-03-10T12:38:01.299Z,12.1
2024-03-10T12:40:01.159Z,12.1
2024-03-10T12:41:01.131Z,12.2
2024-03-10T12:43:01.130Z,12
2024-03-10T12:46:01.073Z,11.9
2024-03-10T12:47:01.106Z,12
2024-03-10T12:49:01.144Z,11.9
2024-03-10T12:51:01.053Z,12.1
2024-03-10T12:52:01.228Z,12
2024-03-10T12:54:01.215Z,11.9
2024-03-10T12:59:01.191Z,11.8
2024-03-10T13:01:01.093Z,11.6
2024-03-10T13:03:01.104Z,11.5
2024-03-10T13:05:01.248Z,11.7
2024-03-10T13:12:01.158Z,11.3
2024-03-10T13:14:01.160Z,11.2
2024-03-10T13:15:01.282Z,11.3
2024-03-10T13:17:01.178Z,11.2
2024-03-10T13:19:01.310Z,11.3
2024-03-10T13:22:01.106Z,11.3
2024-03-10T13:24:01.092Z,11.4
2024-03-10T13:25:01.477Z,11.2
2024-03-10T13:27:01.310Z,11.3
2024-03-10T13:30:01.062Z,11.2
2024-03-10T13:33:01.419Z,11.1
2024-03-10T13:35:01.154Z,11.2
2024-03-10T13:37:00.991Z,11.2
2024-03-10T13:38:01.103Z,11.1
2024-03-10T13:39:01.143Z,11.2
2024-03-10T13:41:01.124Z,11.1
2024-03-10T13:43:01.128Z,11.1
2024-03-10T13:45:01.215Z,10.9
2024-03-10T13:47:01.068Z,10.8
2024-03-10T13:48:01.219Z,10.9
2024-03-10T13:56:01.039Z,10.7
2024-03-10T13:58:01.130Z,10.9
2024-03-10T14:02:01.087Z,10.7
2024-03-10T14:03:03.487Z,10.9
2024-03-10T14:05:01.101Z,10.8
2024-03-10T14:08:01.009Z,10.9
2024-03-10T14:09:01.063Z,10.8
2024-03-10T14:11:01.161Z,10.7
2024-03-10T14:14:01.069Z,10.6
2024-03-10T14:15:01.073Z,10.9
2024-03-10T14:16:01.134Z,10.8
2024-03-10T14:18:01.056Z,10.7
2024-03-10T14:19:01.198Z,10.8
2024-03-10T14:21:01.069Z,10.9
2024-03-10T14:25:01.050Z,11
2024-03-10T14:27:01.043Z,11
2024-03-10T14:29:01.305Z,11
2024-03-10T14:32:01.050Z,10.9
2024-03-10T14:33:03.855Z,11.2
2024-03-10T14:35:01.110Z,10.9
2024-03-10T14:40:01.086Z,10.7
2024-03-10T14:41:01.267Z,10.9
2024-03-10T14:43:01.278Z,10.7
2024-03-10T14:45:01.145Z,10.8
2024-03-10T14:47:01.080Z,10.8
2024-03-10T14:49:01.134Z,10.8
2024-03-10T14:50:01.352Z,10.7
2024-03-10T14:53:01.156Z,10.8
2024-03-10T14:54:01.142Z,10.7
2024-03-10T14:59:01.227Z,10.5
2024-03-10T15:05:01.068Z,10.3
2024-03-10T15:06:01.068Z,10.5
2024-03-10T15:08:01.030Z,10.4
2024-03-10T15:09:01.065Z,10.3
2024-03-10T15:11:01.122Z,10.4
2024-03-10T15:12:01.191Z,10.3
2024-03-10T15:20:01.226Z,10.2
2024-03-10T15:22:00.982Z,10.3
2024-03-10T15:24:01.074Z,10.2
2024-03-10T15:25:01.151Z,10.3
2024-03-10T15:27:01.213Z,10.2
2024-03-10T15:29:01.150Z,10.2
2024-03-10T15:30:01.190Z,10.4
2024-03-10T15:32:01.152Z,10.2
2024-03-10T15:35:01.185Z,10.1
2024-03-10T15:38:00.995Z,10.2
2024-03-10T15:39:01.049Z,10
2024-03-10T15:41:01.134Z,10.2
2024-03-10T15:43:01.059Z,10
2024-03-10T15:44:01.280Z,10.1
2024-03-10T15:48:01.195Z,10
2024-03-10T15:51:01.237Z,10.1
2024-03-10T15:53:01.081Z,10
2024-03-10T15:54:01.106Z,10.1
2024-03-10T15:56:01.000Z,10
2024-03-10T15:57:01.039Z,9.9
2024-03-10T15:59:01.081Z,9.8
2024-03-10T16:01:01.085Z,9.9
2024-03-10T16:03:01.122Z,9.8
2024-03-10T16:06:03.040Z,9.9
2024-03-10T16:07:01.108Z,9.8
2024-03-10T16:09:01.036Z,9.9
2024-03-10T16:11:01.474Z,9.6
2024-03-10T16:13:01.112Z,9.7
2024-03-10T16:15:01.042Z,9.6
2024-03-10T16:18:01.208Z,9.7
2024-03-10T16:20:01.079Z,9.5
2024-03-10T16:21:01.105Z,9.6
2024-03-10T16:23:01.051Z,9.5
2024-03-10T16:24:01.175Z,9.6
2024-03-10T16:27:01.040Z,9.4
2024-03-10T16:29:01.077Z,9.6
2024-03-10T16:31:01.067Z,9.5
2024-03-10T16:32:01.188Z,9.6
2024-03-10T16:35:01.116Z,9.5
2024-03-10T16:37:01.194Z,9.5
2024-03-10T16:39:01.072Z,9.4
2024-03-10T16:41:01.121Z,9.5
2024-03-10T16:46:01.053Z,9.3
2024-03-10T16:48:01.079Z,9.5
2024-03-10T16:49:01.054Z,9.3
2024-03-10T16:51:01.089Z,9.2
2024-03-10T16:53:01.133Z,9.3
2024-03-10T16:55:01.191Z,9.2
2024-03-10T16:57:01.050Z,9.1
2024-03-10T16:59:01.052Z,9.1
2024-03-10T17:00:01.247Z,9.2
2024-03-10T17:05:01.036Z,9
2024-03-10T17:06:01.038Z,9.1
2024-03-10T17:07:01.067Z,9
2024-03-10T17:10:01.221Z,9
2024-03-10T17:11:01.292Z,8.9
2024-03-10T17:14:01.167Z,8.8
2024-03-10T17:15:01.171Z,8.9
2024-03-10T17:16:01.148Z,8.7
2024-03-10T17:17:01.234Z,8.9
2024-03-10T17:19:01.152Z,8.8
2024-03-10T17:21:01.036Z,8.7
2024-03-10T17:23:01.220Z,8.8
2024-03-10T17:26:01.198Z,8.6
2024-03-10T17:27:01.166Z,8.5
2024-03-10T17:28:01.117Z,8.6
2024-03-10T17:31:01.174Z,8.5
2024-03-10T17:32:01.174Z,8.6
2024-03-10T17:34:01.067Z,8.4
2024-03-10T17:35:01.125Z,8.5
2024-03-10T17:36:01.108Z,8.4
2024-03-10T17:38:01.062Z,8.5
2024-03-10T17:39:01.118Z,8.4
2024-03-10T17:42:01.039Z,8.4
2024-03-10T17:43:01.160Z,8.3
2024-03-10T17:45:01.079Z,8.4
2024-03-10T17:46:01.219Z,8.5
2024-03-10T17:49:01.120Z,8.4
2024-03-10T17:51:01.318Z,8.3
2024-03-10T17:54:00.998Z,8.3
2024-03-10T17:55:01.118Z,8.2
2024-03-10T17:56:01.293Z,8.3
2024-03-10T17:57:01.336Z,8.2
2024-03-10T18:00:01.107Z,8.1
2024-03-10T18:01:01.404Z,8
2024-03-10T18:03:01.040Z,8.1
2024-03-10T18:05:01.286Z,7.9
2024-03-10T18:09:01.283Z,7.9
2024-03-10T18:14:01.084Z,7.7
2024-03-10T18:15:01.122Z,7.8
2024-03-10T18:19:01.231Z,7.7
2024-03-10T18:23:01.087Z,7.7
2024-03-10T18:30:01.152Z,7.6
2024-03-10T18:33:01.152Z,7.5
2024-03-10T18:34:01.150Z,7.6
2024-03-10T18:35:01.175Z,7.5
2024-03-10T18:37:01.088Z,7.5
2024-03-10T18:40:01.073Z,7.3
2024-03-10T18:41:01.223Z,7.4
2024-03-10T18:44:01.288Z,7.2
2024-03-10T18:46:00.995Z,7.2
2024-03-10T18:49:01.178Z,7.3
2024-03-10T18:51:06.020Z,7.1
2024-03-10T18:53:01.155Z,7.2
2024-03-10T18:57:01.076Z,7.1
2024-03-10T18:58:01.089Z,7
2024-03-10T19:04:01.137Z,6.9
2024-03-10T19:06:01.021Z,6.8
2024-03-10T19:08:01.096Z,6.9
2024-03-10T19:10:01.031Z,6.8
2024-03-10T19:14:01.163Z,6.7
2024-03-10T19:15:01.283Z,6.8
2024-03-10T19:17:01.129Z,6.9
2024-03-10T19:20:01.125Z,6.9
2024-03-10T19:21:01.156Z,6.8
2024-03-10T19:23:01.286Z,6.9
2024-03-10T19:25:01.135Z,6.7
2024-03-10T19:28:01.026Z,6.7
2024-03-10T19:36:01.137Z,6.8
2024-03-10T19:37:01.103Z,6.7
2024-03-10T19:41:01.205Z,6.6
2024-03-10T19:43:01.036Z,6.7
2024-03-10T19:46:01.001Z,6.5
2024-03-10T19:49:01.059Z,6.4
2024-03-10T19:50:01.113Z,6.5
2024-03-10T19:51:01.130Z,6.4
2024-03-10T19:53:01.162Z,6.5
2024-03-10T19:55:03.944Z,6.4
2024-03-10T19:57:01.082Z,6.4
2024-03-10T19:59:01.169Z,6.5
2024-03-10T20:01:01.134Z,6.3
2024-03-10T20:03:01.106Z,6.3
2024-03-10T20:06:01.034Z,6.3
2024-03-10T20:07:01.058Z,6.2
2024-03-10T20:08:01.167Z,6.3
2024-03-10T20:10:01.042Z,6.4
2024-03-10T20:12:01.122Z,6.2
2024-03-10T20:15:01.104Z,6.3
2024-03-10T20:18:01.076Z,6.2
2024-03-10T20:30:01.376Z,6.1
2024-03-10T20:33:01.436Z,6.1
2024-03-10T20:35:01.175Z,6.1
2024-03-10T20:37:01.172Z,6.2
2024-03-10T20:39:01.289Z,6
2024-03-10T20:42:01.108Z,6
2024-03-10T20:49:01.179Z,5.9
2024-03-10T20:51:01.153Z,6
2024-03-10T20:52:01.275Z,6.1
2024-03-10T20:54:01.085Z,5.9
2024-03-10T20:56:01.111Z,6.1
2024-03-10T21:03:01.139Z,5.9
2024-03-10T21:06:01.016Z,6
2024-03-10T21:07:01.024Z,5.9
2024-03-10T21:13:01.044Z,5.8
2024-03-10T21:16:01.093Z,5.9
2024-03-10T21:18:01.191Z,5.9
2024-03-10T21:21:01.018Z,5.7
2024-03-10T21:23:01.085Z,5.7
2024-03-10T21:24:01.065Z,5.8
2024-03-10T21:26:01.082Z,5.9
2024-03-10T21:28:00.963Z,5.8
2024-03-10T21:32:01.078Z,5.7
2024-03-10T21:34:00.951Z,5.6
2024-03-10T21:35:01.068Z,5.7
2024-03-10T21:36:01.120Z,5.6
2024-03-10T21:40:01.015Z,5.5
2024-03-10T21:41:01.002Z,5.6
2024-03-10T21:45:01.081Z,5.5
2024-03-10T21:47:01.016Z,5.6
2024-03-10T21:49:01.052Z,5.5
2024-03-10T21:51:01.051Z,5.4
2024-03-10T22:00:01.204Z,5.5
2024-03-10T22:03:01.009Z,5.3
2024-03-10T22:07:01.030Z,5.2
2024-03-10T22:08:01.030Z,5.3
2024-03-10T22:10:01.034Z,5.2
2024-03-10T22:12:01.300Z,5.3
2024-03-10T22:14:03.659Z,5.1
2024-03-10T22:15:01.191Z,5
2024-03-10T22:18:01.101Z,5
2024-03-10T22:22:01.065Z,4.9
2024-03-10T22:24:00.989Z,5
2024-03-10T22:26:01.100Z,4.9
2024-03-10T22:27:01.057Z,5.1
2024-03-10T22:29:01.033Z,5.1
2024-03-10T22:30:01.151Z,4.9
2024-03-10T22:32:01.094Z,5
2024-03-10T22:33:01.120Z,5.1
2024-03-10T22:35:01.112Z,5.1
2024-03-10T22:37:01.053Z,5
2024-03-10T22:42:01.075Z,4.9
2024-03-10T22:45:05.255Z,4.9
2024-03-10T22:47:01.130Z,5.1
2024-03-10T22:48:01.546Z,5
2024-03-10T22:52:01.039Z,5.3
2024-03-10T22:53:01.111Z,5.1
2024-03-10T22:56:01.183Z,5.1
2024-03-10T22:59:01.119Z,5.2
2024-03-10T23:01:01.126Z,5.1
2024-03-10T23:02:01.206Z,5.2
2024-03-10T23:04:01.029Z,5.1
2024-03-10T23:05:01.293Z,5.2
2024-03-10T23:07:01.115Z,5.2
2024-03-10T23:08:01.160Z,5.1
2024-03-10T23:13:01.166Z,5
2024-03-10T23:18:01.194Z,5.3
2024-03-10T23:19:01.148Z,5.1
2024-03-10T23:20:01.199Z,5
2024-03-10T23:21:01.477Z,5.1
2024-03-10T23:29:01.027Z,4.9
2024-03-10T23:30:01.392Z,5.1
2024-03-10T23:35:01.037Z,5.2
2024-03-10T23:36:01.072Z,5.3
2024-03-10T23:38:01.020Z,5.6
2024-03-10T23:39:01.161Z,5.7
2024-03-10T23:43:00.989Z,5.9
2024-03-10T23:45:01.190Z,5.8
2024-03-10T23:49:01.041Z,6.1
2024-03-10T23:51:01.107Z,6.2
2024-03-10T23:54:01.003Z,6.3
2024-03-10T23:55:00.993Z,6.4
2024-03-10T23:57:01.033Z,6.4
2024-03-10T23:59:01.059Z,6.5
